Latest Weather Observations for Adelaide

IDS60901

Issued at 9:51 pm CST Thursday 5 May 2016 (issued every 10 minutes, with the page automatically refreshed every 10 minutes)

About weather observations | Map of Adelaide area stations | Latest observations for Adelaide area | Other Formats
Station Details ID: 023090 Name: KENT TOWN Lat: -34.92 Lon: 138.62 Height: 48.0 m
Data from the previous 72 hours. | See also: Recent months at Adelaide
Date/Time
CST
Tmp

°C
App
Tmp
°C
Dew
Point
°C
Rel
Hum
%
Delta-T

°C
Wind Press
QNH
hPa
Press
MSL
hPa
Rain
since
9 am
mm
Dir
 
Spd
km/h
Gust
km/h
Spd
kts
Gust
kts
05/09:30pm 16.3 16.3 9.8 65 3.4 CALM 0 0 0 0 1012.7 - 0.0
05/09:00pm 16.7 16.8 10.1 65 3.5 CALM 0 0 0 0 1012.8 1012.7 0.0
05/08:30pm 17.3 17.3 9.9 62 3.9 CALM 0 0 0 0 1012.5 - 0.0
05/08:00pm 17.9 17.6 10.0 60 4.2 NE 2 7 1 4 1012.3 - 0.0
05/07:30pm 18.5 18.1 9.9 57 4.6 ENE 2 6 1 3 1012.3 - 0.0
05/07:00pm 18.6 18.4 10.4 59 4.4 ENE 2 7 1 4 1012.2 - 0.0
05/06:30pm 19.5 18.7 9.8 53 5.2 ENE 4 7 2 4 1012.1 - 0.0
05/06:00pm 20.3 19.9 9.9 51 5.6 NNE 2 7 1 4 1012.1 1012.1 0.0
05/05:30pm 21.7 20.4 9.9 47 6.4 N 7 11 4 6 1012.0 - 0.0
05/05:00pm 22.6 20.6 8.7 41 7.4 N 9 15 5 8 1011.9 - 0.0
05/04:30pm 23.2 20.3 8.1 38 8.0 NNW 13 20 7 11 1011.9 - 0.0
05/04:00pm 23.5 19.7 7.7 36 8.3 NNW 17 32 9 17 1012.0 - 0.0
05/03:30pm 24.3 21.6 8.9 37 8.3 NNW 13 26 7 14 1012.0 - 0.0
05/03:00pm 24.2 21.5 8.8 37 8.3 NW 13 28 7 15 1012.2 1012.2 0.0
05/02:30pm 24.2 20.5 9.5 39 8.0 NW 19 28 10 15 1012.3 - 0.0
05/02:00pm 23.9 20.6 9.4 39 7.9 NW 17 30 9 16 1012.5 - 0.0
05/01:30pm 23.8 20.5 9.5 40 7.8 NNW 17 32 9 17 1012.8 - 0.0
05/01:00pm 23.2 20.1 10.3 44 7.1 NW 17 28 9 15 1013.1 - 0.0
05/12:30pm 22.7 18.8 9.6 43 7.1 NNW 20 33 11 18 1013.6 - 0.0
05/12:00pm 22.6 18.8 9.7 44 7.0 NNW 20 33 11 18 1014.1 1014.0 0.0
05/11:30am 22.5 19.3 9.8 44 6.9 N 17 32 9 17 1014.6 - 0.0
05/11:00am 21.7 18.0 9.6 46 6.5 NNW 19 24 10 13 1015.1 - 0.0
05/10:30am 20.7 18.2 9.7 49 5.9 N 13 20 7 11 1015.5 - 0.0
05/10:00am 19.9 16.9 9.3 50 5.6 N 15 26 8 14 1015.7 - 0.0
05/09:30am 18.7 16.1 9.2 54 5.0 N 13 20 7 11 1016.0 - 0.0
05/09:00am 17.7 15.4 9.1 57 4.5 NNE 11 20 6 11 1016.2 1016.2 0.0
05/08:30am 16.5 14.7 9.4 63 3.7 NNE 9 17 5 9 1016.2 - 0.0
05/08:00am 14.9 13.7 9.5 70 2.8 NE 6 11 3 6 1016.1 - 0.0
05/07:30am 13.5 13.2 10.0 79 1.8 ENE 2 9 1 5 1015.8 - 0.0
05/07:00am 13.2 12.8 9.9 80 1.7 NE 2 7 1 4 1015.7 - 0.0
05/06:30am 13.2 12.8 9.9 80 1.7 NNE 2 7 1 4 1015.5 - 0.0
05/06:00am 13.4 12.7 9.9 79 1.8 NE 4 9 2 5 1015.3 1015.3 0.0
05/05:30am 13.6 12.9 10.1 79 1.8 NE 4 7 2 4 1015.0 - 0.0
05/05:00am 14.2 13.1 10.0 76 2.2 N 6 9 3 5 1015.2 - 0.0
05/04:30am 14.6 13.0 10.2 75 2.3 N 9 13 5 7 1015.1 - 0.0
05/04:00am 15.3 13.7 10.1 71 2.7 N 9 11 5 6 1014.9 - 0.0
05/03:30am 15.7 14.1 10.2 70 2.9 N 9 13 5 7 1014.9 - 0.0
05/03:00am 15.9 13.9 10.0 68 3.1 N 11 17 6 9 1015.2 1015.2 0.0
05/02:30am 16.5 14.1 10.0 65 3.4 N 13 20 7 11 1015.4 - 0.0
05/02:00am 16.7 16.0 11.3 70 2.9 NNE 6 9 3 5 1015.4 - 0.0
05/01:30am 16.8 15.8 11.0 68 3.1 N 7 9 4 5 1015.7 - 0.0
05/01:00am 16.9 15.7 10.3 65 3.5 N 7 11 4 6 1015.7 - 0.0
05/12:30am 17.0 15.8 10.2 64 3.6 N 7 11 4 6 1015.7 - 0.0
05/12:00am 17.0 15.0 10.2 64 3.6 N 11 17 6 9 1015.7 1015.7 0.0
 
Date/Time
CST
Tmp

°C
App
Tmp
°C
Dew
Point
°C
Rel
Hum
%
Delta-T

°C
Wind Press
QNH
hPa
Press
MSL
hPa
Rain
since
9 am
mm
Dir
 
Spd
km/h
Gust
km/h
Spd
kts
Gust
kts
04/11:30pm 16.9 15.3 10.3 65 3.5 N 9 13 5 7 1015.9 - 0.0
04/11:00pm 16.8 15.6 10.2 65 3.5 N 7 9 4 5 1016.2 - 0.0
04/10:30pm 16.7 15.6 10.5 67 3.3 N 7 9 4 5 1016.3 - 0.0
04/10:00pm 16.7 15.6 10.5 67 3.3 NNE 7 11 4 6 1016.4 - 0.0
04/09:30pm 16.9 15.7 10.3 65 3.5 N 7 13 4 7 1016.6 - 0.0
04/09:00pm 16.8 15.3 10.6 67 3.3 N 9 15 5 8 1016.6 1016.6 0.0
04/08:30pm 16.8 15.7 10.6 67 3.3 N 7 11 4 6 1016.6 - 0.0
04/08:00pm 16.8 15.6 10.2 65 3.5 N 7 11 4 6 1016.6 - 0.0
04/07:30pm 16.8 15.7 10.6 67 3.3 N 7 11 4 6 1016.6 - 0.0
04/07:00pm 16.8 15.7 10.6 67 3.3 N 7 11 4 6 1016.4 - 0.0
04/06:30pm 16.8 15.9 10.8 67 3.2 N 6 11 3 6 1016.2 - 0.0
04/06:00pm 17.0 15.8 10.4 65 3.5 N 7 11 4 6 1015.9 1015.9 0.0
04/05:30pm 17.1 15.8 10.1 63 3.7 NNW 7 15 4 8 1015.8 - 0.0
04/05:00pm 17.2 15.1 9.8 61 3.9 NW 11 20 6 11 1015.8 - 0.0
04/04:30pm 16.9 15.4 10.5 66 3.4 NW 9 20 5 11 1015.6 - 0.0
04/04:00pm 17.1 15.7 11.0 67 3.3 NNW 9 15 5 8 1015.6 - 0.0
04/03:30pm 17.5 15.3 10.8 65 3.6 NW 13 24 7 13 1015.6 - 0.0
04/03:00pm 17.6 15.9 11.3 66 3.4 NW 11 17 6 9 1015.7 1015.7 0.0
04/02:30pm 18.0 15.9 11.0 63 3.8 WNW 13 20 7 11 1015.7 - 0.0
04/02:00pm 17.8 16.6 11.6 67 3.4 NW 9 17 5 9 1015.8 - 0.0
04/01:30pm 17.2 15.5 11.3 68 3.2 N 11 17 6 9 1016.1 - 0.0
04/01:00pm 16.0 14.5 11.8 76 2.3 NNW 11 19 6 10 1016.5 - 0.0
04/12:30pm 16.6 15.3 11.2 70 2.9 N 9 13 5 7 1016.8 - 0.0
04/12:00pm 16.0 14.5 11.8 76 2.3 N 11 17 6 9 1017.2 1017.2 0.0
04/11:30am 15.0 13.5 11.9 82 1.7 WNW 11 20 6 11 1017.4 - 0.0
04/11:00am 16.0 13.7 10.3 69 3.0 W 13 24 7 13 1017.5 - 0.0
04/10:30am 16.5 14.8 10.0 65 3.4 WNW 9 17 5 9 1017.5 - 0.0
04/10:00am 15.3 13.9 11.0 75 2.3 NNE 9 15 5 8 1017.5 - 0.0
04/09:30am 14.9 13.9 11.1 78 2.0 N 7 11 4 6 1017.5 - 0.0
04/09:00am 14.1 13.1 11.1 82 1.6 NNE 7 13 4 7 1017.4 1017.4 5.2
04/08:30am 13.7 13.8 11.4 86 1.2 NE 2 7 1 4 1017.1 - 5.2
04/08:00am 12.8 13.4 11.9 94 0.5 CALM 0 2 0 1 1016.8 - 5.2
04/07:30am 11.5 11.8 10.9 96 0.3 CALM 0 0 0 0 1016.7 - 5.2
04/07:00am 11.2 11.1 10.8 97 0.2 ENE 2 7 1 4 1016.1 - 5.2
04/06:30am 11.6 11.9 11.0 96 0.3 CALM 0 0 0 0 1015.6 - 5.2
04/06:00am 11.9 11.9 11.3 96 0.3 ENE 2 9 1 5 1015.3 1015.3 5.2
04/05:30am 11.5 11.5 11.1 97 0.2 NE 2 6 1 3 1015.0 - 5.2
04/05:00am 11.7 12.1 11.1 96 0.3 CALM 0 0 0 0 1014.9 - 5.2
04/04:30am 12.0 12.4 11.4 96 0.3 CALM 0 0 0 0 1014.6 - 5.2
04/04:00am 12.0 12.4 11.4 96 0.3 CALM 0 0 0 0 1014.4 - 5.0
04/03:30am 11.9 12.3 11.3 96 0.3 CALM 0 0 0 0 1014.6 - 5.0
04/03:00am 12.0 12.4 11.4 96 0.3 CALM 0 0 0 0 1014.4 1014.3 5.0
04/02:30am 12.4 12.9 11.6 95 0.4 CALM 0 0 0 0 1014.3 - 5.0
04/02:00am 12.2 11.9 11.6 96 0.3 E 4 11 2 6 1014.1 - 5.0
04/01:30am 12.2 12.3 11.4 95 0.4 S 2 7 1 4 1014.2 - 5.0
04/01:00am 12.6 13.2 11.9 95 0.4 CALM 0 7 0 4 1014.2 - 4.4
04/12:30am 12.8 11.2 11.7 93 0.6 SW 11 28 6 15 1014.3 - 4.2
04/12:00am 12.7 13.2 11.6 93 0.6 CALM 0 0 0 0 1013.9 1013.8 3.6
 
Date/Time
CST
Tmp

°C
App
Tmp
°C
Dew
Point
°C
Rel
Hum
%
Delta-T

°C
Wind Press
QNH
hPa
Press
MSL
hPa
Rain
since
9 am
mm
Dir
 
Spd
km/h
Gust
km/h
Spd
kts
Gust
kts
03/11:30pm 13.0 13.2 11.7 92 0.7 S 2 7 1 4 1013.9 - 3.6
03/11:00pm 13.7 12.5 11.6 87 1.1 SSW 9 19 5 10 1014.0 - 3.6
03/10:30pm 14.0 14.5 11.6 85 1.3 CALM 0 6 0 3 1013.9 - 3.6
03/10:00pm 13.9 13.2 11.3 84 1.4 WNW 6 9 3 5 1013.7 - 3.6
03/09:30pm 14.3 13.3 11.1 81 1.7 WSW 7 13 4 7 1013.6 - 3.6
03/09:00pm 15.0 12.0 10.7 75 2.3 WSW 17 30 9 16 1013.6 1013.5 3.6
03/08:30pm 15.3 12.7 9.5 68 3.0 WSW 13 24 7 13 1013.0 - 3.6
03/08:00pm 15.1 13.3 10.8 75 2.3 SW 11 20 6 11 1012.8 - 3.6
03/07:30pm 15.6 13.4 9.2 65 3.3 W 11 22 6 12 1012.1 - 3.6
03/07:00pm 15.9 12.6 9.6 66 3.3 W 17 26 9 14 1011.7 - 3.6
03/06:30pm 15.4 13.7 11.1 75 2.3 W 11 22 6 12 1011.2 - 3.6
03/06:00pm 15.3 12.8 11.0 75 2.3 WSW 15 22 8 12 1010.8 1010.8 3.6
03/05:30pm 15.0 13.2 12.1 83 1.6 WSW 13 22 7 12 1010.3 - 3.6
03/05:00pm 14.3 12.7 12.8 91 0.8 WSW 13 22 7 12 1010.0 - 3.6
03/04:30pm 16.3 14.0 11.9 75 2.4 WSW 15 26 8 14 1009.6 - 2.8
03/04:00pm 15.8 13.0 13.1 84 1.5 WSW 20 33 11 18 1009.3 - 2.8
03/03:30pm 16.8 13.8 12.5 76 2.4 WSW 20 37 11 20 1008.5 - 2.8
03/03:00pm 17.2 15.0 14.8 86 1.4 W 20 32 11 17 1008.0 1008.0 2.8
03/02:30pm 17.0 14.6 13.8 81 1.8 W 19 33 10 18 1007.6 - 2.8
03/02:00pm 16.6 15.1 15.2 91 0.8 W 17 26 9 14 1007.6 - 2.8
03/01:37pm 16.3 12.5 14.7 90 0.9 W 28 54 15 29 1007.6 - 2.4
03/01:30pm 18.9 15.8 13.3 70 3.2 WNW 22 39 12 21 1007.1 - 1.8
03/01:00pm 18.2 15.6 13.3 73 2.8 WNW 19 30 10 16 1007.3 - 1.8
03/12:30pm 18.8 15.5 14.1 74 2.7 WNW 24 43 13 23 1007.3 - 1.8
03/12:00pm 19.1 17.5 15.0 77 2.4 WNW 17 39 9 21 1007.4 1007.4 1.8
03/11:30am 18.3 15.6 14.5 78 2.2 W 22 37 12 20 1007.8 - 1.8
03/11:00am 16.6 15.4 15.1 91 0.9 WNW 15 28 8 15 1008.1 - 1.8
03/10:30am 15.7 12.9 14.3 91 0.8 W 22 35 12 19 1008.2 - 1.8
03/10:00am 18.1 15.7 14.3 78 2.2 WNW 20 39 11 21 1007.5 - 0.8
03/09:30am 17.3 15.9 15.6 90 1.0 WNW 17 32 9 17 1007.7 - 0.8
03/09:00am 16.2 14.7 14.1 87 1.2 NW 15 26 8 14 1007.7 1007.7 0.8
03/08:30am 15.8 14.2 14.0 89 1.0 NW 15 26 8 14 1007.3 - 0.8
03/08:00am 17.0 14.4 13.3 79 2.1 NW 19 33 10 18 1007.2 - 0.4
03/07:30am 17.3 14.3 12.6 74 2.6 NW 20 35 11 19 1007.0 - 0.4
03/07:00am 16.6 14.2 12.6 77 2.2 NW 17 32 9 17 1006.8 - 0.4
03/06:30am 16.2 14.1 12.4 78 2.1 NNW 15 24 8 13 1006.8 - 0.4
03/06:00am 14.6 12.8 10.8 78 2.0 N 11 19 6 10 1007.1 1007.1 0.4
03/05:30am 14.5 11.8 10.3 76 2.2 N 15 24 8 13 1007.0 - 0.4
03/05:00am 14.7 12.4 10.5 76 2.2 N 13 20 7 11 1006.9 - 0.4
03/04:30am 14.6 11.4 10.0 74 2.4 N 17 32 9 17 1006.9 - 0.4
03/04:00am 14.9 12.3 10.6 75 2.3 N 15 24 8 13 1007.3 - 0.4
03/03:30am 15.7 13.1 10.6 71 2.7 N 15 22 8 12 1007.5 - 0.4
03/03:00am 16.8 13.5 10.9 68 3.2 NW 19 39 10 21 1007.4 1007.4 0.4
03/02:30am 16.6 14.2 11.4 71 2.8 NW 15 24 8 13 1007.9 - 0.4
03/02:00am 17.0 14.9 11.3 69 3.1 NW 13 26 7 14 1008.3 - 0.4
03/01:30am 17.1 14.3 11.4 69 3.1 NW 17 26 9 14 1009.0 - 0.4
03/01:00am 17.5 14.4 11.5 68 3.3 NW 19 33 10 18 1009.4 - 0.4
03/12:30am 17.8 14.3 11.0 64 3.7 NW 20 35 11 19 1009.5 - 0.4
03/12:00am 17.9 14.7 11.1 64 3.7 WNW 19 41 10 22 1009.8 1009.8 0.4
 
Date/Time
CST
Tmp

°C
App
Tmp
°C
Dew
Point
°C
Rel
Hum
%
Delta-T

°C
Wind Press
QNH
hPa
Press
MSL
hPa
Rain
since
9 am
mm
Dir
 
Spd
km/h
Gust
km/h
Spd
kts
Gust
kts
02/11:30pm 17.6 14.6 11.8 69 3.2 NW 19 41 10 22 1010.1 - 0.4
02/11:00pm 17.6 15.0 12.0 69 3.1 NW 17 32 9 17 1010.5 - 0.4
02/10:30pm 17.7 14.9 11.3 66 3.5 NW 17 30 9 16 1010.7 - 0.4
02/10:00pm 17.6 15.3 11.6 68 3.3 NW 15 28 8 15 1010.9 - 0.4

Latest Capital City Observations: Canberra | Sydney | Melbourne | Brisbane | Adelaide | Perth | Hobart | Darwin

Other Formats:

Comma delimited format used in spreadsheet applications
http://www.bom.gov.au/fwo/IDS60901/IDS60901.94675.axf

JavaScript Object Notation format (JSON) in row-major order
http://www.bom.gov.au/fwo/IDS60901/IDS60901.94675.json